Etusivu
METAR-TAF:

METAR-TAF

Lentoasemat :

Vuoreija, Norja

Leveyspiiri: 70-21N, Pituuspiiri: 031-03E, korkeus merenpinnasta: 12 m

Tämänhetkinen sää

Tämä raportti tehtiin 50 minuuttia sitten, kello 17.50 UTC
Tuuli 8 kn etelästä/lounaasta
Lämpötila 8°C
Kosteus 93%
Ilmanpaine 1026 hPa
Näkyvyys 10 km tai enemmän
ei pilviä alle 1500 m:ssä eikä cumulonimbus-pilviä

METAR: ENSS 221750Z 21008KT CAVOK 08/07 Q1026 RMK WIND 500FT 24013KT

Aika: 20:40 (18:40 UTC)


TAF: puuttuu

Säähavainnot ja -ennusteet yli 4000 lentoasemalta (METAR- ja TAF-raportit).

Käytössä olevat sääasemat on merkitty karttaan keltaisilla ja punaisilla pisteillä.

Aseta hiiri pisteen päälle nähdäksesi sääaseman nimen.

Klikkaa sitten nähdäksesi säähavainnot ja -ennusteet.

Kartan vaihtaminen: klikkaa mustalla rastilla varustettuja vihreitä pisteitä, niin voit zoomata sisään; viivalla varustettua vihreää pistettä, niin voit zoomata ulos tai vihreitä nuolia, niin pääset viereisille kartoille.


METAR-TAF: